createdAt,value
2022-10-04T00:01:40.884Z,1.77
2022-10-04T00:06:53.950Z,2.10
2022-10-04T00:11:57.294Z,2.35
2022-10-04T00:17:00.129Z,2.10
2022-10-04T00:22:07.495Z,1.95
2022-10-04T00:27:27.039Z,1.95
2022-10-04T00:32:40.548Z,2.00
2022-10-04T00:38:14.993Z,1.90
2022-10-04T00:43:31.206Z,2.38
2022-10-04T00:48:41.669Z,1.90
2022-10-04T00:54:05.966Z,1.75
2022-10-04T00:59:22.647Z,1.85
2022-10-04T01:04:39.926Z,1.45
2022-10-04T01:09:53.458Z,1.80
2022-10-04T01:15:30.008Z,1.88
2022-10-04T01:20:48.789Z,1.80
2022-10-04T01:25:51.160Z,1.67
2022-10-04T01:30:53.513Z,1.88
2022-10-04T01:35:55.219Z,2.38
2022-10-04T01:41:03.103Z,1.80
2022-10-04T01:46:11.297Z,1.90
2022-10-04T01:51:30.291Z,1.63
2022-10-04T01:56:43.911Z,2.03
2022-10-04T02:01:52.650Z,1.73
2022-10-04T02:06:57.061Z,1.98
2022-10-04T02:11:59.704Z,1.70
2022-10-04T02:17:05.585Z,1.80
2022-10-04T02:22:10.827Z,1.90
2022-10-04T02:27:13.226Z,2.00
2022-10-04T02:32:33.553Z,2.05
2022-10-04T02:37:38.209Z,2.08
2022-10-04T02:43:03.782Z,2.15
2022-10-04T02:48:31.804Z,2.20
2022-10-04T02:53:52.190Z,2.58
2022-10-04T02:58:54.699Z,1.85
2022-10-04T03:03:58.299Z,1.65
2022-10-04T03:09:03.678Z,2.50
2022-10-04T03:14:10.400Z,2.30
2022-10-04T03:19:15.737Z,2.40
2022-10-04T03:24:25.153Z,1.98
2022-10-04T03:29:32.004Z,2.20
2022-10-04T03:34:37.103Z,1.77
2022-10-04T03:39:43.300Z,1.50
2022-10-04T03:44:46.838Z,2.15
2022-10-04T03:49:51.008Z,2.17
2022-10-04T03:54:55.832Z,2.20
2022-10-04T03:59:59.291Z,2.00
2022-10-04T04:05:11.267Z,2.15
2022-10-04T04:10:27.576Z,2.45
2022-10-04T04:15:32.759Z,2.80
2022-10-04T04:20:36.841Z,3.00
2022-10-04T04:25:42.076Z,2.72
2022-10-04T04:30:51.567Z,3.00
2022-10-04T04:35:56.308Z,3.13
2022-10-04T04:41:08.540Z,2.63
2022-10-04T04:46:26.536Z,2.47
2022-10-04T04:51:31.660Z,2.60
2022-10-04T04:56:34.924Z,2.45
2022-10-04T05:01:48.038Z,2.20
2022-10-04T05:07:17.151Z,2.13
2022-10-04T05:12:23.660Z,1.90
2022-10-04T05:17:29.849Z,2.00
2022-10-04T05:22:32.890Z,2.35
2022-10-04T05:27:40.777Z,2.20
2022-10-04T05:33:04.925Z,2.40
2022-10-04T05:38:10.696Z,2.45
2022-10-04T05:43:26.833Z,2.00
2022-10-04T05:48:28.626Z,2.35
2022-10-04T05:53:31.319Z,2.35
2022-10-04T05:58:48.267Z,2.28
2022-10-04T06:04:16.537Z,2.15
2022-10-04T06:09:18.018Z,2.17
2022-10-04T06:14:44.450Z,2.78
2022-10-04T06:20:20.710Z,2.35
2022-10-04T06:25:38.317Z,2.20
2022-10-04T06:31:07.914Z,2.60
2022-10-04T06:36:34.286Z,3.33
2022-10-04T06:41:49.056Z,2.28
2022-10-04T06:46:58.543Z,1.80
2022-10-04T06:52:23.448Z,2.33
2022-10-04T06:57:37.103Z,2.70
2022-10-04T07:03:03.018Z,2.38
2022-10-04T07:08:34.061Z,2.25
2022-10-04T07:13:56.565Z,2.30
2022-10-04T07:19:19.316Z,2.22
2022-10-04T07:24:27.741Z,2.13
2022-10-04T07:29:39.923Z,2.63
2022-10-04T07:34:46.038Z,2.30
2022-10-04T07:39:52.812Z,2.28
2022-10-04T07:45:21.452Z,1.83
2022-10-04T07:50:30.353Z,2.15
2022-10-04T07:55:55.373Z,1.70
2022-10-04T08:01:15.271Z,1.70
2022-10-04T08:06:26.203Z,2.00
2022-10-04T08:11:41.425Z,1.88
2022-10-04T08:17:17.788Z,1.70
2022-10-04T08:22:26.863Z,1.88
2022-10-04T08:33:26.318Z,1.80
2022-10-04T08:38:48.010Z,1.60
2022-10-04T08:44:05.723Z,1.70
2022-10-04T08:49:39.798Z,1.42
2022-10-04T08:55:11.866Z,1.55
2022-10-04T09:00:32.060Z,1.90
2022-10-04T09:05:45.557Z,1.52
2022-10-04T09:11:31.831Z,1.80
2022-10-04T09:17:01.732Z,1.75
2022-10-04T09:22:17.377Z,1.58
2022-10-04T09:27:55.412Z,1.80
2022-10-04T09:33:00.266Z,1.73
2022-10-04T09:38:29.168Z,1.98
2022-10-04T09:44:00.413Z,2.05
2022-10-04T09:49:13.629Z,2.17
2022-10-04T09:54:33.588Z,1.55
2022-10-04T09:59:43.836Z,1.70
2022-10-04T10:05:11.284Z,1.88
2022-10-04T10:11:04.183Z,1.58
2022-10-04T10:16:29.839Z,1.70
2022-10-04T10:22:02.269Z,1.58
2022-10-04T10:27:31.586Z,1.90
2022-10-04T10:32:39.331Z,1.73
2022-10-04T10:37:49.629Z,1.65
2022-10-04T10:42:59.890Z,1.50
2022-10-04T10:48:29.787Z,1.60
2022-10-04T10:53:59.040Z,1.67
2022-10-04T10:59:33.258Z,1.70
2022-10-04T11:04:56.390Z,1.80
2022-10-04T11:10:32.362Z,1.17
2022-10-04T11:16:11.495Z,1.30
2022-10-04T11:22:07.383Z,1.60
2022-10-04T11:27:28.789Z,1.70
2022-10-04T11:32:45.653Z,1.67
2022-10-04T11:38:04.921Z,1.23
2022-10-04T11:43:17.567Z,1.30
2022-10-04T11:48:22.042Z,1.00
2022-10-04T11:53:55.586Z,1.40
2022-10-04T11:59:17.751Z,1.20
2022-10-04T12:04:41.342Z,1.10
2022-10-04T12:10:03.408Z,1.40
2022-10-04T12:15:32.881Z,1.30
2022-10-04T12:21:12.613Z,1.50
2022-10-04T12:26:32.992Z,1.50
2022-10-04T12:31:36.276Z,1.10
2022-10-04T12:36:53.040Z,0.98
2022-10-04T12:42:09.497Z,1.20
2022-10-04T12:47:29.077Z,1.40
2022-10-04T12:52:43.960Z,1.15
2022-10-04T12:57:58.249Z,1.20
2022-10-04T13:03:22.727Z,1.27
2022-10-04T13:08:37.908Z,1.10
2022-10-04T13:13:42.130Z,1.45
2022-10-04T13:19:10.636Z,1.17
2022-10-04T13:24:55.646Z,1.33
2022-10-04T13:30:13.376Z,1.35
2022-10-04T13:35:23.858Z,1.60
2022-10-04T13:40:54.903Z,1.20
2022-10-04T13:46:20.066Z,1.25
2022-10-04T13:51:28.685Z,1.60
2022-10-04T13:56:57.699Z,1.38
2022-10-04T14:02:41.044Z,1.40
2022-10-04T14:07:57.785Z,1.48
2022-10-04T14:13:27.070Z,1.30
2022-10-04T14:18:40.508Z,1.45
2022-10-04T14:23:44.553Z,1.25
2022-10-04T14:28:59.068Z,1.48
2022-10-04T14:34:37.571Z,1.60
2022-10-04T14:40:08.687Z,1.40
2022-10-04T14:45:35.286Z,1.50
2022-10-04T14:51:16.428Z,1.45
2022-10-04T14:56:43.886Z,1.30
2022-10-04T15:02:00.599Z,1.50
2022-10-04T15:07:16.785Z,1.70
2022-10-04T15:18:46.133Z,2.03
2022-10-04T15:23:54.976Z,2.03
2022-10-04T15:29:25.660Z,2.10
2022-10-04T15:34:35.468Z,2.08
2022-10-04T15:39:47.385Z,5.40
2022-10-04T15:45:15.988Z,2.75
2022-10-04T15:50:32.583Z,2.13
2022-10-04T15:55:38.050Z,1.67
2022-10-04T16:01:05.258Z,1.48
2022-10-04T16:06:21.692Z,2.20
2022-10-04T16:11:32.297Z,2.40
2022-10-04T16:17:09.809Z,2.50
2022-10-04T16:22:19.013Z,2.30
2022-10-04T16:27:46.219Z,2.30
2022-10-04T16:32:56.607Z,2.55
2022-10-04T16:38:14.417Z,3.35
2022-10-04T16:43:15.936Z,3.10
2022-10-04T16:48:23.634Z,2.83
2022-10-04T16:53:59.581Z,3.35
2022-10-04T16:59:10.922Z,2.65
2022-10-04T17:04:38.776Z,3.22
2022-10-04T17:09:48.971Z,3.47
2022-10-04T17:15:21.073Z,3.60
2022-10-04T17:20:25.800Z,3.97
2022-10-04T17:25:53.048Z,6.20
2022-10-04T17:31:08.658Z,5.95
2022-10-04T17:36:33.190Z,6.10
2022-10-04T17:41:43.506Z,7.97
2022-10-04T17:47:23.847Z,10.40
2022-10-04T17:52:52.775Z,14.77
2022-10-04T17:58:02.804Z,13.93
2022-10-04T18:03:12.344Z,16.95
2022-10-04T18:08:33.781Z,11.48
2022-10-04T18:13:49.438Z,11.20
2022-10-04T18:18:51.144Z,11.52
2022-10-04T18:24:16.998Z,10.07
2022-10-04T18:29:37.133Z,11.38
2022-10-04T18:34:38.817Z,12.38
2022-10-04T18:39:55.403Z,12.18
2022-10-04T18:45:05.430Z,11.75
2022-10-04T18:50:20.882Z,14.30
2022-10-04T18:56:13.172Z,17.98
2022-10-04T19:01:57.646Z,14.85
2022-10-04T19:07:30.343Z,15.02
2022-10-04T19:12:41.133Z,14.90
2022-10-04T19:18:00.839Z,20.05
2022-10-04T19:23:33.301Z,19.13
2022-10-04T19:28:37.679Z,15.70
2022-10-04T19:33:53.668Z,14.40
2022-10-04T19:39:22.927Z,13.30
2022-10-04T19:45:01.884Z,12.57
2022-10-04T19:50:10.421Z,12.75
2022-10-04T19:55:42.820Z,12.30
2022-10-04T20:00:44.642Z,12.70
2022-10-04T20:05:48.711Z,12.45
2022-10-04T20:10:50.297Z,13.55
2022-10-04T20:16:00.597Z,13.68
2022-10-04T20:21:09.708Z,13.38
2022-10-04T20:26:53.767Z,17.55
2022-10-04T20:31:56.308Z,27.63
2022-10-04T20:36:57.899Z,16.17
2022-10-04T20:42:29.896Z,13.65
2022-10-04T20:47:43.961Z,13.02
2022-10-04T20:52:48.498Z,12.90
2022-10-04T20:57:50.072Z,12.68
2022-10-04T21:03:08.314Z,12.95
2022-10-04T21:08:14.845Z,13.57
2022-10-04T21:13:42.286Z,12.63
2022-10-04T21:18:43.828Z,11.73
2022-10-04T21:23:45.357Z,12.15
2022-10-04T21:28:48.308Z,11.93
2022-10-04T21:33:49.980Z,11.82
2022-10-04T21:38:54.242Z,12.38
2022-10-04T21:43:55.832Z,11.82
2022-10-04T21:48:57.376Z,12.68
2022-10-04T21:53:59.462Z,12.25
2022-10-04T21:59:01.126Z,11.88
2022-10-04T22:04:02.901Z,12.30
2022-10-04T22:09:05.257Z,12.55
2022-10-04T22:14:06.788Z,12.75
2022-10-04T22:19:08.348Z,12.73
2022-10-04T22:24:17.507Z,12.48
2022-10-04T22:34:22.887Z,12.70
2022-10-04T22:39:25.078Z,12.77
2022-10-04T22:44:34.535Z,11.30
2022-10-04T22:49:38.804Z,11.32
2022-10-04T22:54:44.597Z,10.27
2022-10-04T22:59:51.469Z,10.63
2022-10-04T23:05:09.849Z,11.10
2022-10-04T23:10:13.993Z,10.97
2022-10-04T23:15:17.918Z,11.95
2022-10-04T23:20:20.584Z,12.10
2022-10-04T23:25:29.154Z,11.85
2022-10-04T23:30:30.981Z,11.57
2022-10-04T23:35:34.105Z,10.90
2022-10-04T23:40:35.699Z,11.20
2022-10-04T23:45:42.051Z,10.50
2022-10-04T23:50:43.877Z,10.65
2022-10-04T23:55:46.151Z,9.27
